Time;durP1;ratioP1;P1;durP2;ratioP2;P2;SDS_P1;SDS_P2;PMS_P1;PMS_P2;Temp;Humidity;BMP_temperature;BMP_pressure;BME280_temperature;BME280_humidity;BME280_pressure;Samples;Min_cycle;Max_cycle;Signal;HPM_P1;HPM_P2
2023/03/10 00:02:00;;;;;;;37.97;17.10;;;1.70;99.90;;;;;;5041500;28;20025;-73
2023/03/10 00:04:26;;;;;;;37.42;17.15;;;1.60;99.90;;;;;;5040907;28;20041;-72
2023/03/10 00:06:51;;;;;;;40.13;17.83;;;1.60;99.90;;;;;;5040884;28;20034;-72
2023/03/10 00:09:17;;;;;;;39.42;17.33;;;1.60;99.90;;;;;;5042271;28;20029;-72
2023/03/10 00:11:42;;;;;;;37.38;16.60;;;1.70;99.90;;;;;;5041308;28;20113;-72
2023/03/10 00:14:08;;;;;;;36.20;16.42;;;1.70;99.90;;;;;;5040397;28;20084;-73
2023/03/10 00:16:34;;;;;;;38.67;17.27;;;1.70;99.90;;;;;;5042280;28;20498;-70
2023/03/10 00:18:59;;;;;;;36.97;17.13;;;1.70;99.90;;;;;;5040721;28;20053;-70
2023/03/10 00:21:30;;;;;;;41.72;18.05;;;1.70;99.90;;;;;;5042355;28;20026;-71
2023/03/10 00:23:56;;;;;;;37.15;16.58;;;1.70;99.90;;;;;;5040927;28;20045;-70
2023/03/10 00:26:26;;;;;;;38.42;17.40;;;1.70;99.90;;;;;;5041155;28;20044;-71
2023/03/10 00:28:52;;;;;;;40.58;17.98;;;1.70;99.90;;;;;;5041926;28;20108;-69
2023/03/10 00:31:20;;;;;;;41.38;17.65;;;1.70;99.90;;;;;;5041640;28;20030;-71
2023/03/10 00:33:46;;;;;;;40.05;17.02;;;1.70;99.90;;;;;;5041304;28;20025;-69
2023/03/10 00:36:18;;;;;;;39.90;16.65;;;1.70;99.90;;;;;;5039366;28;20030;-71
2023/03/10 00:38:45;;;;;;;40.08;16.75;;;1.70;99.90;;;;;;5041991;28;20034;-71
2023/03/10 00:41:19;;;;;;;41.00;17.40;;;1.70;99.90;;;;;;5041873;28;20524;-70
2023/03/10 00:43:45;;;;;;;40.42;18.67;;;1.70;99.90;;;;;;5040419;28;20045;-70
2023/03/10 00:46:11;;;;;;;37.15;16.33;;;1.70;99.90;;;;;;5041297;28;20051;-71
2023/03/10 00:48:37;;;;;;;38.75;16.80;;;1.80;99.90;;;;;;5040009;28;20383;-71
2023/03/10 00:51:04;;;;;;;38.13;17.73;;;1.70;99.90;;;;;;5040928;28;20064;-70
2023/03/10 00:53:30;;;;;;;39.17;17.23;;;1.80;99.90;;;;;;5041643;28;20030;-70
2023/03/10 00:56:25;;;;;;;37.22;16.05;;;1.80;99.90;;;;;;5038796;28;20022;-72
2023/03/10 00:58:52;;;;;;;;;;;1.80;99.90;;;;;;5042025;28;20025;-71
2023/03/10 01:01:23;;;;;;;40.08;17.38;;;1.80;99.90;;;;;;5040590;28;19931;-70
2023/03/10 01:03:53;;;;;;;38.83;16.98;;;1.80;99.90;;;;;;5040837;28;20083;-70
2023/03/10 01:06:20;;;;;;;39.60;17.63;;;1.80;99.90;;;;;;5039485;28;20025;-70
2023/03/10 01:08:46;;;;;;;37.35;16.48;;;1.80;99.90;;;;;;5040242;28;20101;-68
2023/03/10 01:11:16;;;;;;;34.50;16.55;;;1.80;99.90;;;;;;5040806;28;20060;-71
2023/03/10 01:13:42;;;;;;;38.67;17.60;;;1.80;99.90;;;;;;5041278;28;20026;-71
2023/03/10 01:16:08;;;;;;;41.78;16.83;;;1.80;99.90;;;;;;5040934;28;20022;-70
2023/03/10 01:18:34;;;;;;;39.88;16.65;;;1.70;99.90;;;;;;5040335;28;20037;-72
2023/03/10 01:20:59;;;;;;;38.90;18.08;;;1.70;99.90;;;;;;5041287;28;20026;-69
2023/03/10 01:23:26;;;;;;;39.70;16.98;;;1.70;99.90;;;;;;5039544;28;20095;-69
2023/03/10 01:25:52;;;;;;;39.25;17.02;;;1.70;99.90;;;;;;5039719;28;20028;-68
2023/03/10 01:28:19;;;;;;;38.22;16.08;;;1.80;99.90;;;;;;5038732;28;20049;-71
2023/03/10 01:30:45;;;;;;;38.35;15.98;;;1.80;99.90;;;;;;5040781;28;20061;-69
2023/03/10 01:33:12;;;;;;;38.53;16.55;;;1.80;99.90;;;;;;5040419;28;20029;-70
2023/03/10 01:35:38;;;;;;;32.80;15.32;;;1.80;99.90;;;;;;5038586;28;20085;-70
2023/03/10 01:38:04;;;;;;;48.35;17.67;;;1.80;99.90;;;;;;5038121;28;20056;-69
2023/03/10 01:40:30;;;;;;;35.95;16.35;;;1.80;99.90;;;;;;5038841;28;20025;-71
2023/03/10 01:43:21;;;;;;;37.15;16.50;;;1.80;99.90;;;;;;5039232;28;20029;-72
2023/03/10 01:45:46;;;;;;;36.75;17.42;;;1.80;99.90;;;;;;5039977;28;20060;-71
2023/03/10 01:48:14;;;;;;;39.72;17.42;;;1.70;99.90;;;;;;5040100;28;20025;-72
2023/03/10 01:50:43;;;;;;;37.13;16.38;;;1.70;99.90;;;;;;5038175;28;20364;-69
2023/03/10 01:53:11;;;;;;;38.85;17.30;;;1.70;99.90;;;;;;5038045;28;20650;-70
2023/03/10 01:55:42;;;;;;;37.35;17.27;;;1.80;99.90;;;;;;5039429;28;20017;-71
2023/03/10 01:58:09;;;;;;;39.67;16.98;;;1.80;99.90;;;;;;5038194;28;20043;-70
2023/03/10 02:00:35;;;;;;;39.70;17.23;;;1.80;99.90;;;;;;5040311;28;20067;-70
2023/03/10 02:03:34;;;;;;;36.85;17.05;;;1.80;99.90;;;;;;5039711;28;20026;-71
2023/03/10 02:06:06;;;;;;;39.92;17.45;;;1.80;99.90;;;;;;5038120;28;20067;-70
2023/03/10 02:08:37;;;;;;;38.88;17.25;;;1.80;99.90;;;;;;5038507;28;20033;-71
2023/03/10 02:11:03;;;;;;;41.38;17.55;;;1.80;99.90;;;;;;5039027;28;20025;-71
2023/03/10 02:13:29;;;;;;;38.75;17.25;;;1.80;99.90;;;;;;5040102;28;20036;-70
2023/03/10 02:15:54;;;;;;;39.97;18.38;;;1.80;99.90;;;;;;5040503;28;20034;-70
2023/03/10 02:18:21;;;;;;;39.85;17.83;;;1.80;99.90;;;;;;5040120;28;20768;-71
2023/03/10 02:21:20;;;;;;;42.83;18.10;;;1.80;99.90;;;;;;5038730;28;20033;-70
2023/03/10 02:24:00;;;;;;;39.92;17.50;;;1.80;99.90;;;;;;5040491;28;20920;-70
2023/03/10 02:26:34;;;;;;;41.63;18.33;;;1.80;99.90;;;;;;5038304;28;20025;-71
2023/03/10 02:29:04;;;;;;;41.85;17.95;;;1.70;99.90;;;;;;5039550;28;20052;-73
2023/03/10 02:31:31;;;;;;;45.83;18.45;;;1.70;99.90;;;;;;5037701;28;20056;-72
2023/03/10 02:33:57;;;;;;;41.10;18.40;;;1.70;99.90;;;;;;5038345;28;20776;-71
2023/03/10 02:36:23;;;;;;;38.95;16.90;;;1.70;99.90;;;;;;5039660;28;20063;-72
2023/03/10 02:38:49;;;;;;;40.55;18.25;;;1.70;99.90;;;;;;5039325;28;20109;-71
2023/03/10 02:41:39;;;;;;;39.05;17.98;;;1.70;99.90;;;;;;5039485;28;20394;-71
2023/03/10 02:44:10;;;;;;;41.03;17.02;;;1.70;99.90;;;;;;5037711;28;20096;-73
2023/03/10 02:46:36;;;;;;;38.13;16.52;;;1.70;99.90;;;;;;5039303;28;20038;-73
2023/03/10 02:49:04;;;;;;;38.53;17.70;;;1.70;99.90;;;;;;5038318;28;20032;-74
2023/03/10 02:51:33;;;;;;;37.63;17.10;;;1.70;99.90;;;;;;5038016;28;20430;-72
2023/03/10 02:54:00;;;;;;;37.22;16.52;;;1.70;99.90;;;;;;5039032;28;20039;-72
2023/03/10 02:56:26;;;;;;;38.80;16.90;;;1.70;99.90;;;;;;5038313;28;20048;-72
2023/03/10 02:58:52;;;;;;;35.92;16.67;;;1.70;99.90;;;;;;5039905;28;20089;-71
2023/03/10 03:01:18;;;;;;;39.90;17.23;;;1.70;99.90;;;;;;5043090;28;20060;-71
2023/03/10 03:03:44;;;;;;;39.85;17.13;;;1.60;99.90;;;;;;5043364;28;20056;-71
2023/03/10 03:06:10;;;;;;;38.45;16.23;;;1.60;99.90;;;;;;5041840;28;20034;-71
2023/03/10 03:08:36;;;;;;;36.30;15.98;;;1.60;99.90;;;;;;5043108;28;20075;-69
2023/03/10 03:11:02;;;;;;;33.05;15.35;;;1.60;99.90;;;;;;5043643;28;20033;-69
2023/03/10 03:13:27;;;;;;;34.95;16.40;;;1.60;99.90;;;;;;5043190;28;20040;-70
2023/03/10 03:15:53;;;;;;;34.67;15.57;;;1.60;99.90;;;;;;5043258;28;20034;-67
2023/03/10 03:18:19;;;;;;;33.38;15.30;;;1.60;99.90;;;;;;5041170;28;20036;-69
2023/03/10 03:20:44;;;;;;;32.60;15.27;;;1.70;99.90;;;;;;5043279;28;20033;-70
2023/03/10 03:23:10;;;;;;;33.00;15.68;;;1.70;99.90;;;;;;5042624;28;20022;-71
2023/03/10 03:25:38;;;;;;;37.13;16.25;;;1.70;99.90;;;;;;5043198;28;20056;-69
2023/03/10 03:28:05;;;;;;;31.67;15.27;;;1.70;99.90;;;;;;5042962;28;20057;-72
2023/03/10 03:30:31;;;;;;;35.00;16.45;;;1.60;99.90;;;;;;5041586;28;20053;-72
2023/03/10 03:32:57;;;;;;;34.00;15.85;;;1.60;99.90;;;;;;5042963;28;20034;-73
2023/03/10 03:35:34;;;;;;;32.95;14.95;;;1.60;99.90;;;;;;5041506;28;20037;-72
2023/03/10 03:38:01;;;;;;;34.35;15.75;;;1.60;99.90;;;;;;5042919;28;20034;-72
2023/03/10 03:40:29;;;;;;;36.00;15.90;;;1.60;99.90;;;;;;5043107;28;20075;-73
2023/03/10 03:42:55;;;;;;;37.65;16.52;;;1.60;99.90;;;;;;5042768;28;20437;-71
2023/03/10 03:45:25;;;;;;;34.78;16.35;;;1.50;99.90;;;;;;5043075;28;20053;-70
2023/03/10 03:47:50;;;;;;;40.50;17.60;;;1.50;99.90;;;;;;5042610;28;20678;-70
2023/03/10 03:50:17;;;;;;;39.38;16.92;;;1.50;99.90;;;;;;5043172;28;20028;-70
2023/03/10 03:52:43;;;;;;;40.15;17.38;;;1.70;99.90;;;;;;5041398;28;20029;-68
2023/03/10 03:55:11;;;;;;;40.75;18.10;;;1.60;99.90;;;;;;5042886;28;20241;-69
2023/03/10 03:57:37;;;;;;;41.78;17.38;;;1.40;99.90;;;;;;5041681;28;20033;-72
2023/03/10 04:00:07;;;;;;;44.17;19.23;;;1.60;99.90;;;;;;5042849;28;20048;-73
2023/03/10 04:02:34;;;;;;;43.00;18.95;;;1.50;99.90;;;;;;5041522;28;20053;-72
2023/03/10 04:05:00;;;;;;;44.80;19.67;;;1.50;99.90;;;;;;5042452;28;20040;-74
2023/03/10 04:07:25;;;;;;;44.30;18.95;;;1.50;99.90;;;;;;5042663;28;20033;-72
2023/03/10 04:09:51;;;;;;;43.33;19.38;;;1.50;99.90;;;;;;5041381;28;20018;-72
2023/03/10 04:12:17;;;;;;;43.72;18.38;;;1.50;99.90;;;;;;5041241;28;20076;-73
2023/03/10 04:14:42;;;;;;;49.33;20.73;;;1.50;99.90;;;;;;5040044;28;20487;-71
2023/03/10 04:17:08;;;;;;;48.88;20.70;;;1.50;99.90;;;;;;5041373;28;20097;-71
2023/03/10 04:19:33;;;;;;;48.45;20.30;;;1.50;99.90;;;;;;5040966;28;20036;-74
2023/03/10 04:21:59;;;;;;;46.33;20.65;;;1.50;99.90;;;;;;5041187;28;20093;-74
2023/03/10 04:24:24;;;;;;;52.60;23.05;;;1.50;99.90;;;;;;5040924;28;20063;-74
2023/03/10 04:26:50;;;;;;;52.88;23.33;;;1.40;99.90;;;;;;5041812;28;20053;-74
2023/03/10 04:29:16;;;;;;;53.50;23.80;;;1.50;99.90;;;;;;5042634;28;20033;-76
2023/03/10 04:31:41;;;;;;;56.45;23.58;;;1.40;99.90;;;;;;5040415;28;20044;-77
2023/03/10 04:34:07;;;;;;;56.33;23.83;;;1.50;99.90;;;;;;5040316;28;20026;-78
2023/03/10 04:36:33;;;;;;;54.88;22.23;;;1.50;99.90;;;;;;5040823;28;20037;-75
2023/03/10 04:38:58;;;;;;;61.70;24.25;;;1.50;99.90;;;;;;5040367;28;20475;-74
2023/03/10 04:41:24;;;;;;;53.25;23.23;;;1.50;99.90;;;;;;5040221;28;20034;-73
2023/03/10 04:43:49;;;;;;;57.03;23.80;;;1.50;99.90;;;;;;5040016;28;20524;-73
2023/03/10 04:46:15;;;;;;;56.33;22.92;;;1.50;99.90;;;;;;5041672;28;20026;-72
2023/03/10 04:48:41;;;;;;;53.33;22.63;;;1.50;99.90;;;;;;5040655;28;20029;-72
2023/03/10 04:51:09;;;;;;;59.90;23.50;;;1.50;99.90;;;;;;5042086;28;20049;-72
2023/03/10 04:53:36;;;;;;;51.40;22.30;;;1.40;99.90;;;;;;5041932;28;20044;-74
2023/03/10 04:56:04;;;;;;;52.33;22.10;;;1.40;99.90;;;;;;5041429;28;20581;-71
2023/03/10 04:58:30;;;;;;;54.03;23.25;;;1.50;99.90;;;;;;5040113;28;20021;-72
2023/03/10 05:00:56;;;;;;;50.28;21.13;;;1.50;99.90;;;;;;5042030;28;20037;-72
2023/03/10 05:03:22;;;;;;;51.63;22.48;;;1.40;99.90;;;;;;5041203;28;20093;-74
2023/03/10 05:05:47;;;;;;;50.83;21.35;;;1.50;99.90;;;;;;5041549;28;20052;-72
2023/03/10 05:08:13;;;;;;;49.90;21.67;;;1.50;99.90;;;;;;5040346;28;20040;-72
2023/03/10 05:10:41;;;;;;;46.97;20.20;;;1.40;99.90;;;;;;5039762;28;20029;-71
2023/03/10 05:13:11;;;;;;;52.22;22.73;;;1.50;99.90;;;;;;5033699;28;20097;-74
2023/03/10 05:15:37;;;;;;;52.25;21.05;;;1.40;99.90;;;;;;5040229;28;20024;-75
2023/03/10 05:18:02;;;;;;;49.80;21.55;;;1.50;99.90;;;;;;5039289;28;20028;-71
2023/03/10 05:20:28;;;;;;;50.20;21.00;;;1.50;99.90;;;;;;5041632;28;20025;-72
2023/03/10 05:22:54;;;;;;;49.05;21.02;;;1.50;99.90;;;;;;5036887;28;20095;-70
2023/03/10 05:25:19;;;;;;;47.80;21.13;;;1.50;99.90;;;;;;5040555;28;20084;-71
2023/03/10 05:27:45;;;;;;;47.80;21.20;;;1.40;99.90;;;;;;5040241;28;20130;-69
2023/03/10 05:30:13;;;;;;;48.90;21.17;;;1.50;99.90;;;;;;5039728;28;20394;-69
2023/03/10 05:32:38;;;;;;;49.50;21.35;;;1.40;99.90;;;;;;5038477;28;20120;-72
2023/03/10 05:35:04;;;;;;;54.00;22.45;;;1.40;99.90;;;;;;5041057;28;20683;-70
2023/03/10 05:37:30;;;;;;;52.58;21.05;;;1.40;99.90;;;;;;5038392;28;20069;-70
2023/03/10 05:39:55;;;;;;;54.00;22.73;;;1.40;99.90;;;;;;5040239;28;20033;-69
2023/03/10 05:42:21;;;;;;;54.60;22.48;;;1.40;99.90;;;;;;5040888;28;20028;-69
2023/03/10 05:44:47;;;;;;;54.35;22.20;;;1.40;99.90;;;;;;5040991;28;21007;-66
2023/03/10 05:47:17;;;;;;;49.78;21.48;;;1.40;99.90;;;;;;5038182;28;20025;-68
2023/03/10 05:49:43;;;;;;;50.05;22.42;;;1.50;99.90;;;;;;5035522;28;20048;-71
2023/03/10 05:52:09;;;;;;;50.30;22.60;;;1.50;99.90;;;;;;5035015;28;20037;-67
2023/03/10 05:54:35;;;;;;;51.03;22.27;;;1.50;99.90;;;;;;5026974;28;20025;-68
2023/03/10 05:57:01;;;;;;;50.85;21.35;;;1.50;99.90;;;;;;5029390;28;20053;-69
2023/03/10 05:59:26;;;;;;;50.80;20.95;;;1.50;99.90;;;;;;5030974;28;20040;-70
2023/03/10 06:01:52;;;;;;;51.28;20.67;;;1.50;99.90;;;;;;5034849;28;20041;-69
2023/03/10 06:04:18;;;;;;;51.35;20.42;;;1.50;99.90;;;;;;5036519;28;20124;-69
2023/03/10 06:06:43;;;;;;;51.35;20.90;;;1.50;99.90;;;;;;5039654;28;20041;-68
2023/03/10 06:09:09;;;;;;;46.45;20.10;;;1.50;99.90;;;;;;5038992;28;20033;-68
2023/03/10 06:11:34;;;;;;;47.95;21.05;;;1.50;99.90;;;;;;5030852;28;20041;-69
2023/03/10 06:14:00;;;;;;;47.15;21.60;;;1.50;99.90;;;;;;5036594;28;20057;-69
2023/03/10 06:16:25;;;;;;;50.13;21.58;;;1.50;99.90;;;;;;5035977;28;20085;-70
2023/03/10 06:18:53;;;;;;;51.35;22.52;;;1.60;99.90;;;;;;5040986;28;20060;-72
2023/03/10 06:21:19;;;;;;;50.92;20.63;;;1.60;99.90;;;;;;5039801;28;20035;-71
2023/03/10 06:23:45;;;;;;;51.80;21.35;;;1.60;99.90;;;;;;5038081;28;20073;-72
2023/03/10 06:26:14;;;;;;;45.25;20.60;;;1.60;99.90;;;;;;5041148;28;20033;-72
2023/03/10 06:28:42;;;;;;;51.10;21.67;;;1.60;99.90;;;;;;5034994;28;20056;-72
2023/03/10 06:31:12;;;;;;;49.15;21.88;;;1.60;99.90;;;;;;5033523;28;20026;-71
2023/03/10 06:33:38;;;;;;;51.95;21.40;;;1.60;99.90;;;;;;5036288;28;20033;-73
2023/03/10 06:36:04;;;;;;;44.75;19.83;;;1.60;99.90;;;;;;5038467;28;20037;-72
2023/03/10 06:38:30;;;;;;;51.05;21.42;;;1.60;99.90;;;;;;5038863;28;20029;-72
2023/03/10 06:40:56;;;;;;;45.17;18.88;;;1.60;99.90;;;;;;5038332;28;20029;-71
2023/03/10 06:43:22;;;;;;;48.72;20.80;;;1.70;99.90;;;;;;5040021;28;20029;-70
2023/03/10 06:45:48;;;;;;;54.28;20.92;;;1.70;99.90;;;;;;5033645;28;20038;-72
2023/03/10 06:48:15;;;;;;;46.72;20.67;;;1.70;99.90;;;;;;5034218;28;20092;-69
2023/03/10 06:50:46;;;;;;;50.63;22.02;;;1.70;99.90;;;;;;5036341;28;20025;-69
2023/03/10 06:53:12;;;;;;;47.92;21.42;;;1.70;99.90;;;;;;5040090;28;20022;-72
2023/03/10 06:55:38;;;;;;;57.47;21.27;;;1.70;99.90;;;;;;5036679;28;20021;-68
2023/03/10 06:58:04;;;;;;;44.35;19.60;;;1.70;99.90;;;;;;5035665;28;20044;-70
2023/03/10 07:00:29;;;;;;;46.78;21.38;;;1.70;99.90;;;;;;5028203;28;20037;-72
2023/03/10 07:02:55;;;;;;;48.15;21.58;;;1.70;99.90;;;;;;5034190;28;20557;-69
2023/03/10 07:05:22;;;;;;;48.55;21.33;;;1.70;99.90;;;;;;5040092;28;20048;-69
2023/03/10 07:07:49;;;;;;;47.40;20.85;;;1.70;99.90;;;;;;5039368;28;20026;-70
2023/03/10 07:10:15;;;;;;;49.38;21.08;;;1.70;99.90;;;;;;5031522;28;20032;-71
2023/03/10 07:12:42;;;;;;;48.05;20.77;;;1.70;99.90;;;;;;5032000;28;20061;-70
2023/03/10 07:15:08;;;;;;;47.75;22.23;;;1.70;99.90;;;;;;5037249;28;20034;-71
2023/03/10 07:17:33;;;;;;;49.80;20.80;;;1.70;99.90;;;;;;5050733;28;20045;-72
2023/03/10 07:19:59;;;;;;;50.53;21.95;;;1.80;99.90;;;;;;5033187;28;20498;-72
2023/03/10 07:22:24;;;;;;;44.90;19.55;;;1.80;99.90;;;;;;5038941;28;20025;-71
2023/03/10 07:24:54;;;;;;;45.10;20.50;;;1.70;99.90;;;;;;5034660;28;20041;-73
2023/03/10 07:27:19;;;;;;;49.65;21.55;;;1.70;99.90;;;;;;5038472;28;20041;-72
2023/03/10 07:29:45;;;;;;;51.65;21.95;;;1.70;99.90;;;;;;5039484;28;20116;-71
2023/03/10 07:32:10;;;;;;;51.20;22.15;;;1.70;99.90;;;;;;5039432;28;20029;-73
2023/03/10 07:34:36;;;;;;;52.25;21.30;;;1.70;99.90;;;;;;5040633;28;20474;-72
2023/03/10 07:37:01;;;;;;;48.40;21.13;;;1.70;99.90;;;;;;5038886;28;20037;-70
2023/03/10 07:39:27;;;;;;;65.88;27.65;;;1.80;99.90;;;;;;5039107;28;20030;-72
2023/03/10 07:41:53;;;;;;;70.28;28.52;;;1.70;99.90;;;;;;5039350;28;20049;-72
2023/03/10 07:44:19;;;;;;;74.43;29.75;;;1.80;99.90;;;;;;5039890;28;20030;-72
2023/03/10 07:46:44;;;;;;;57.67;24.50;;;1.80;99.90;;;;;;5042222;28;20033;-74
2023/03/10 07:49:10;;;;;;;72.47;28.52;;;1.80;99.90;;;;;;5042326;28;20033;-74
2023/03/10 07:51:36;;;;;;;53.10;23.65;;;1.80;99.90;;;;;;5043280;28;20482;-76
2023/03/10 07:54:03;;;;;;;48.40;22.70;;;1.80;99.90;;;;;;5043436;28;20036;-76
2023/03/10 07:56:28;;;;;;;46.42;20.98;;;1.80;99.90;;;;;;5043436;28;20025;-75
2023/03/10 07:58:54;;;;;;;52.15;22.33;;;1.80;99.90;;;;;;5042297;28;21058;-75
2023/03/10 08:01:21;;;;;;;49.85;21.63;;;1.80;99.90;;;;;;5042218;28;20033;-75
2023/03/10 08:03:46;;;;;;;48.97;21.80;;;1.80;99.90;;;;;;5058644;28;21984;-75
2023/03/10 08:06:21;;;;;;;48.88;21.30;;;1.80;99.90;;;;;;5041086;28;20122;-75
2023/03/10 08:08:47;;;;;;;53.80;21.95;;;1.80;99.90;;;;;;5041191;28;20076;-76
2023/03/10 08:11:13;;;;;;;44.28;21.13;;;1.80;99.90;;;;;;5041562;28;20026;-74
2023/03/10 08:13:38;;;;;;;49.45;21.83;;;1.90;99.90;;;;;;5041533;28;20040;-74
2023/03/10 08:16:05;;;;;;;49.78;22.02;;;1.80;99.90;;;;;;5043993;28;20429;-76
2023/03/10 08:18:31;;;;;;;50.55;22.13;;;1.80;99.90;;;;;;5043771;28;20052;-73
2023/03/10 08:20:57;;;;;;;52.65;22.33;;;1.80;99.90;;;;;;5043755;28;20148;-71
2023/03/10 08:23:23;;;;;;;49.30;20.63;;;1.80;99.90;;;;;;5043219;28;20021;-72
2023/03/10 08:25:49;;;;;;;50.08;22.00;;;1.80;99.90;;;;;;5043408;28;20506;-73
2023/03/10 08:28:14;;;;;;;50.42;22.25;;;1.80;99.90;;;;;;5043187;28;20033;-74
2023/03/10 08:30:40;;;;;;;50.53;22.27;;;1.90;99.90;;;;;;5040234;28;20071;-73
2023/03/10 08:33:09;;;;;;;56.42;23.60;;;1.90;99.90;;;;;;5040764;28;20033;-75
2023/03/10 08:35:36;;;;;;;46.10;21.55;;;1.90;99.90;;;;;;5040693;28;20032;-73
2023/03/10 08:38:03;;;;;;;48.47;21.30;;;1.90;99.90;;;;;;5043397;28;20041;-72
2023/03/10 08:40:29;;;;;;;51.50;22.02;;;1.90;99.90;;;;;;5041525;28;20085;-72
2023/03/10 08:42:54;;;;;;;46.15;20.48;;;1.90;99.90;;;;;;5041041;28;20032;-72
2023/03/10 08:45:20;;;;;;;45.67;20.50;;;1.90;99.90;;;;;;5041008;28;20038;-72
2023/03/10 08:47:46;;;;;;;47.13;21.10;;;1.90;99.90;;;;;;5039316;28;20021;-73
2023/03/10 08:50:12;;;;;;;45.75;20.05;;;1.90;99.90;;;;;;5039452;28;20025;-70
2023/03/10 08:52:38;;;;;;;50.50;20.75;;;1.90;99.90;;;;;;5043767;28;20029;-70
2023/03/10 08:55:05;;;;;;;46.40;20.70;;;1.90;99.90;;;;;;5038488;28;20026;-72
2023/03/10 08:57:31;;;;;;;49.17;20.45;;;1.90;99.90;;;;;;5039801;28;20036;-70
2023/03/10 08:59:56;;;;;;;50.45;21.35;;;1.90;99.90;;;;;;5041777;28;20025;-68
2023/03/10 09:02:23;;;;;;;44.55;20.55;;;1.90;99.90;;;;;;5040805;28;20024;-68
2023/03/10 09:04:49;;;;;;;46.85;19.45;;;2.00;99.90;;;;;;5041444;28;20049;-70
2023/03/10 09:07:15;;;;;;;47.50;20.77;;;2.00;99.90;;;;;;5041132;28;20029;-69
2023/03/10 09:09:41;;;;;;;46.63;22.05;;;2.00;99.90;;;;;;5037127;28;20406;-70
2023/03/10 09:12:08;;;;;;;64.07;27.75;;;2.00;99.90;;;;;;5039612;28;20025;-70
2023/03/10 09:14:34;;;;;;;47.38;21.80;;;2.00;99.90;;;;;;5041358;28;20152;-70
2023/03/10 09:17:00;;;;;;;46.40;21.05;;;2.00;99.90;;;;;;5040547;28;20029;-71
2023/03/10 09:19:26;;;;;;;45.40;20.90;;;2.00;99.90;;;;;;5040219;28;20092;-70
2023/03/10 09:21:52;;;;;;;42.50;19.52;;;2.10;99.90;;;;;;5039503;28;20045;-71
2023/03/10 09:24:18;;;;;;;46.13;20.75;;;2.00;99.90;;;;;;5040614;28;20033;-72
2023/03/10 09:26:44;;;;;;;46.65;19.65;;;2.00;99.90;;;;;;5041300;28;20046;-69
2023/03/10 09:29:10;;;;;;;47.33;19.17;;;2.10;99.90;;;;;;5041779;28;20038;-67
2023/03/10 09:31:38;;;;;;;41.85;18.75;;;2.10;99.90;;;;;;5041327;28;20021;-68
2023/03/10 09:34:05;;;;;;;43.15;18.23;;;2.10;99.90;;;;;;5042052;28;20013;-68
2023/03/10 09:36:31;;;;;;;44.22;19.85;;;2.20;99.90;;;;;;5042466;28;20660;-67
2023/03/10 09:38:58;;;;;;;41.33;18.17;;;2.20;99.90;;;;;;5039150;28;20032;-69
2023/03/10 09:41:45;;;;;;;41.55;20.25;;;2.30;99.90;;;;;;5041598;28;20140;-68
2023/03/10 09:44:21;;;;;;;41.28;18.40;;;2.40;99.90;;;;;;5039971;28;20098;-68
2023/03/10 09:47:06;;;;;;;39.10;17.90;;;2.50;99.90;;;;;;5040231;28;20029;-70
2023/03/10 09:50:09;;;;;;;41.47;18.00;;;2.50;99.90;;;;;;5041206;28;20032;-69
2023/03/10 09:53:10;;;;;;;38.40;18.42;;;2.60;99.90;;;;;;5035009;28;20479;-69
2023/03/10 09:55:39;;;;;;;39.97;18.40;;;2.70;99.90;;;;;;5033325;28;20029;-69
2023/03/10 09:58:11;;;;;;;39.08;17.88;;;2.80;99.90;;;;;;5040232;28;20025;-72
2023/03/10 10:00:40;;;;;;;40.17;18.08;;;2.90;99.90;;;;;;5038918;28;20035;-72
2023/03/10 10:03:29;;;;;;;36.63;17.92;;;3.00;99.90;;;;;;5038961;28;20022;-72
2023/03/10 10:05:55;;;;;;;34.17;17.45;;;3.10;99.90;;;;;;5038740;28;20136;-75
2023/03/10 10:08:41;;;;;;;38.40;18.83;;;3.10;99.90;;;;;;5038686;28;20120;-72
2023/03/10 10:11:13;;;;;;;35.33;18.20;;;3.10;99.90;;;;;;5039753;28;20041;-74
2023/03/10 10:13:40;;;;;;;38.83;17.88;;;3.10;99.90;;;;;;5033266;28;20029;-73
2023/03/10 10:16:34;;;;;;;42.55;20.65;;;3.20;99.90;;;;;;5040306;28;20029;-75
2023/03/10 10:19:24;;;;;;;41.30;20.58;;;3.30;99.90;;;;;;5039417;28;20025;-75
2023/03/10 10:21:59;;;;;;;38.28;18.52;;;3.30;99.90;;;;;;5037131;28;20553;-75
2023/03/10 10:24:24;;;;;;;38.08;18.45;;;3.30;99.90;;;;;;5040042;28;20037;-73
2023/03/10 10:26:50;;;;;;;39.83;16.90;;;3.30;99.90;;;;;;5039774;28;20052;-74
2023/03/10 10:29:27;;;;;;;35.70;18.15;;;3.30;99.90;;;;;;5040077;28;20034;-70
2023/03/10 10:32:04;;;;;;;39.13;18.00;;;3.30;99.90;;;;;;5039713;28;20067;-71
2023/03/10 10:34:31;;;;;;;34.47;17.63;;;3.40;99.90;;;;;;5041304;28;20088;-70
2023/03/10 10:36:57;;;;;;;36.70;18.20;;;3.50;99.90;;;;;;5039868;28;20025;-70
2023/03/10 10:39:30;;;;;;;38.13;19.25;;;3.50;99.90;;;;;;5041328;28;20036;-69
2023/03/10 10:42:12;;;;;;;36.08;18.38;;;3.60;99.90;;;;;;5041161;28;20028;-71
2023/03/10 10:44:44;;;;;;;39.92;19.13;;;3.70;99.90;;;;;;5038008;28;20458;-70
2023/03/10 10:47:34;;;;;;;38.17;18.27;;;3.70;99.90;;;;;;5039965;28;20034;-72
2023/03/10 10:50:18;;;;;;;38.30;18.77;;;3.70;99.90;;;;;;5040487;28;20057;-70
2023/03/10 10:52:47;;;;;;;34.70;18.30;;;3.80;99.90;;;;;;5040743;28;20117;-72
2023/03/10 10:55:34;;;;;;;38.30;17.85;;;3.80;99.90;;;;;;5039933;28;20364;-70
2023/03/10 10:58:03;;;;;;;36.00;17.85;;;3.90;99.90;;;;;;5039359;28;20037;-71
2023/03/10 11:00:31;;;;;;;33.58;16.50;;;4.00;99.90;;;;;;5041055;28;20040;-69
2023/03/10 11:02:57;;;;;;;40.90;19.05;;;4.10;99.90;;;;;;5037099;28;20041;-70
2023/03/10 11:05:31;;;;;;;36.25;18.70;;;4.00;99.90;;;;;;5040922;28;20034;-69
2023/03/10 11:08:36;;;;;;;36.70;18.70;;;4.10;99.90;;;;;;5037998;28;20030;-70
2023/03/10 11:11:17;;;;;;;35.72;18.42;;;4.00;99.90;;;;;;5039974;28;20017;-70
2023/03/10 11:14:11;;;;;;;36.63;19.02;;;4.00;99.90;;;;;;5040282;28;20108;-73
2023/03/10 11:16:48;;;;;;;41.05;18.80;;;3.90;99.90;;;;;;5039810;28;20406;-72
2023/03/10 11:19:25;;;;;;;37.78;18.85;;;3.90;99.90;;;;;;5039348;28;20082;-72
2023/03/10 11:21:55;;;;;;;39.40;19.55;;;3.90;99.90;;;;;;5041747;28;20037;-72
2023/03/10 11:24:29;;;;;;;38.15;18.70;;;3.80;99.90;;;;;;5042840;28;20056;-71
2023/03/10 11:27:27;;;;;;;39.20;18.77;;;3.90;99.90;;;;;;5044054;28;20057;-70
2023/03/10 11:30:06;;;;;;;36.67;17.95;;;3.90;99.90;;;;;;5024579;28;20065;-70
2023/03/10 11:32:40;;;;;;;35.08;17.23;;;3.80;99.90;;;;;;5043126;28;20033;-70
2023/03/10 11:35:24;;;;;;;40.42;19.52;;;3.70;99.90;;;;;;5044406;28;20017;-71
2023/03/10 11:37:59;;;;;;;39.25;18.88;;;3.70;99.90;;;;;;5042515;28;20026;-72
2023/03/10 11:40:47;;;;;;;38.35;19.10;;;3.60;99.90;;;;;;5040957;28;20037;-73
2023/03/10 11:43:16;;;;;;;39.75;19.80;;;3.70;99.90;;;;;;5043529;28;20032;-72
2023/03/10 11:45:53;;;;;;;39.90;20.05;;;3.80;99.90;;;;;;5043575;28;20515;-72
2023/03/10 11:48:45;;;;;;;38.63;19.90;;;3.90;99.90;;;;;;5044115;28;20025;-72
2023/03/10 11:51:49;;;;;;;38.05;19.52;;;3.90;99.90;;;;;;5044471;28;20041;-73
2023/03/10 11:54:41;;;;;;;39.07;18.73;;;3.90;99.90;;;;;;5020990;28;20137;-73
2023/03/10 11:57:17;;;;;;;43.28;20.40;;;3.90;99.90;;;;;;5032229;28;20021;-73
2023/03/10 11:59:52;;;;;;;39.10;19.60;;;3.90;99.90;;;;;;5043930;28;20081;-71
2023/03/10 12:02:28;;;;;;;40.10;19.08;;;3.90;99.90;;;;;;5043567;28;20088;-74
2023/03/10 12:05:06;;;;;;;37.47;18.42;;;3.90;99.90;;;;;;5042309;28;20052;-72
2023/03/10 12:07:42;;;;;;;36.85;18.83;;;3.90;99.90;;;;;;5043679;28;20021;-72
2023/03/10 12:10:20;;;;;;;41.00;19.98;;;3.90;99.90;;;;;;5041952;28;20095;-71
2023/03/10 12:12:48;;;;;;;39.25;19.42;;;3.80;99.90;;;;;;5036792;28;20113;-70
2023/03/10 12:15:31;;;;;;;42.33;19.90;;;3.80;99.90;;;;;;5039699;28;20060;-71
2023/03/10 12:17:57;;;;;;;45.67;20.70;;;3.70;99.90;;;;;;5041910;28;20038;-71
2023/03/10 12:20:28;;;;;;;44.88;20.73;;;3.70;99.90;;;;;;5042110;28;20565;-71
2023/03/10 12:23:10;;;;;;;42.47;20.80;;;3.70;99.90;;;;;;5043404;28;20462;-71
2023/03/10 12:25:38;;;;;;;43.58;21.83;;;3.60;99.90;;;;;;5042779;28;20061;-71
2023/03/10 12:28:16;;;;;;;45.30;21.85;;;3.70;99.90;;;;;;5041023;28;20060;-71
2023/03/10 12:30:50;;;;;;;47.50;22.13;;;3.70;99.90;;;;;;5040392;28;20120;-72
2023/03/10 12:36:31;;;;;;;46.17;21.88;;;3.90;99.90;;;;;;5037353;28;20562;-73
2023/03/10 12:39:38;;;;;;;41.13;20.83;;;3.90;99.90;;;;;;5039996;28;20045;-72
2023/03/10 12:42:25;;;;;;;42.47;20.13;;;3.90;99.90;;;;;;5039413;28;20117;-70
2023/03/10 12:45:16;;;;;;;43.80;20.48;;;4.00;99.90;;;;;;5042511;28;20037;-69
2023/03/10 12:47:57;;;;;;;43.75;20.83;;;4.00;99.90;;;;;;5039857;28;20057;-71
2023/03/10 12:50:52;;;;;;;42.30;20.13;;;4.00;99.90;;;;;;5043592;28;20025;-71
2023/03/10 12:53:31;;;;;;;43.85;20.05;;;4.00;99.90;;;;;;5043567;28;20037;-71
2023/03/10 12:56:11;;;;;;;43.28;20.70;;;3.90;99.90;;;;;;5043283;28;20056;-69